sensor_id;sensor_type;location;lat;lon;timestamp;P1;durP1;ratioP1;P2;durP2;ratioP2
3333;SDS011;1679;50.392;8.008;2024-03-23T00:53:51;40.80;;;22.00;;
3333;SDS011;1679;50.392;8.008;2024-03-23T00:56:17;76.00;;;35.17;;
3333;SDS011;1679;50.392;8.008;2024-03-23T00:58:42;41.40;;;23.30;;
3333;SDS011;1679;50.392;8.008;2024-03-23T01:01:09;37.87;;;20.77;;
3333;SDS011;1679;50.392;8.008;2024-03-23T01:03:35;37.90;;;21.60;;
3333;SDS011;1679;50.392;8.008;2024-03-23T01:06:01;40.83;;;21.30;;
3333;SDS011;1679;50.392;8.008;2024-03-23T01:08:28;37.80;;;20.73;;
3333;SDS011;1679;50.392;8.008;2024-03-23T01:10:56;38.07;;;21.20;;
3333;SDS011;1679;50.392;8.008;2024-03-23T01:13:23;41.80;;;21.40;;
3333;SDS011;1679;50.392;8.008;2024-03-23T01:15:49;40.43;;;22.00;;
3333;SDS011;1679;50.392;8.008;2024-03-23T01:18:17;43.97;;;22.80;;
3333;SDS011;1679;50.392;8.008;2024-03-23T01:20:43;43.13;;;22.90;;
3333;SDS011;1679;50.392;8.008;2024-03-23T01:23:09;42.60;;;24.17;;
3333;SDS011;1679;50.392;8.008;2024-03-23T01:25:34;46.67;;;24.40;;
3333;SDS011;1679;50.392;8.008;2024-03-23T01:28:00;43.60;;;22.80;;
3333;SDS011;1679;50.392;8.008;2024-03-23T01:30:25;40.37;;;22.30;;
3333;SDS011;1679;50.392;8.008;2024-03-23T01:32:51;42.43;;;22.00;;
3333;SDS011;1679;50.392;8.008;2024-03-23T01:35:16;40.53;;;22.47;;
3333;SDS011;1679;50.392;8.008;2024-03-23T01:37:42;42.60;;;22.33;;
3333;SDS011;1679;50.392;8.008;2024-03-23T01:40:07;43.37;;;23.13;;
3333;SDS011;1679;50.392;8.008;2024-03-23T01:42:33;39.50;;;20.97;;
3333;SDS011;1679;50.392;8.008;2024-03-23T01:44:59;40.67;;;21.30;;
3333;SDS011;1679;50.392;8.008;2024-03-23T01:47:24;35.90;;;20.60;;
3333;SDS011;1679;50.392;8.008;2024-03-23T01:49:51;42.43;;;23.10;;
3333;SDS011;1679;50.392;8.008;2024-03-23T01:52:17;42.77;;;22.30;;
3333;SDS011;1679;50.392;8.008;2024-03-23T01:54:43;44.67;;;22.70;;
3333;SDS011;1679;50.392;8.008;2024-03-23T01:57:09;40.13;;;22.13;;
3333;SDS011;1679;50.392;8.008;2024-03-23T01:59:35;35.03;;;21.50;;
3333;SDS011;1679;50.392;8.008;2024-03-23T02:02:01;45.20;;;22.80;;
3333;SDS011;1679;50.392;8.008;2024-03-23T02:04:28;47.10;;;24.03;;
3333;SDS011;1679;50.392;8.008;2024-03-23T02:06:53;49.00;;;22.83;;
3333;SDS011;1679;50.392;8.008;2024-03-23T02:09:19;44.93;;;23.27;;
3333;SDS011;1679;50.392;8.008;2024-03-23T02:11:45;48.87;;;22.63;;
3333;SDS011;1679;50.392;8.008;2024-03-23T02:14:10;47.37;;;23.60;;
3333;SDS011;1679;50.392;8.008;2024-03-23T02:16:36;43.77;;;23.27;;
3333;SDS011;1679;50.392;8.008;2024-03-23T02:19:03;54.40;;;24.43;;
3333;SDS011;1679;50.392;8.008;2024-03-23T02:21:28;52.63;;;25.00;;
3333;SDS011;1679;50.392;8.008;2024-03-23T02:23:59;52.57;;;24.43;;
3333;SDS011;1679;50.392;8.008;2024-03-23T02:26:24;42.43;;;23.67;;
3333;SDS011;1679;50.392;8.008;2024-03-23T02:28:50;47.87;;;24.70;;
3333;SDS011;1679;50.392;8.008;2024-03-23T02:31:15;47.80;;;23.33;;
3333;SDS011;1679;50.392;8.008;2024-03-23T02:33:41;31.47;;;13.90;;
3333;SDS011;1679;50.392;8.008;2024-03-23T02:36:08;21.27;;;11.93;;
3333;SDS011;1679;50.392;8.008;2024-03-23T02:38:33;22.27;;;10.10;;
3333;SDS011;1679;50.392;8.008;2024-03-23T02:41:03;18.77;;;8.97;;
3333;SDS011;1679;50.392;8.008;2024-03-23T02:43:29;10.23;;;5.40;;
3333;SDS011;1679;50.392;8.008;2024-03-23T02:45:55;8.53;;;4.93;;
3333;SDS011;1679;50.392;8.008;2024-03-23T02:48:20;5.13;;;3.27;;
3333;SDS011;1679;50.392;8.008;2024-03-23T02:50:46;2.23;;;2.03;;
3333;SDS011;1679;50.392;8.008;2024-03-23T02:53:13;2.00;;;1.80;;
3333;SDS011;1679;50.392;8.008;2024-03-23T02:55:38;1.60;;;1.20;;
3333;SDS011;1679;50.392;8.008;2024-03-23T02:58:05;1.37;;;1.00;;
3333;SDS011;1679;50.392;8.008;2024-03-23T03:00:31;1.17;;;0.77;;
3333;SDS011;1679;50.392;8.008;2024-03-23T03:02:56;1.20;;;1.00;;
3333;SDS011;1679;50.392;8.008;2024-03-23T03:05:22;1.20;;;0.87;;
3333;SDS011;1679;50.392;8.008;2024-03-23T03:07:50;1.13;;;0.70;;
3333;SDS011;1679;50.392;8.008;2024-03-23T03:10:15;0.90;;;0.50;;
3333;SDS011;1679;50.392;8.008;2024-03-23T03:12:42;1.00;;;0.57;;
3333;SDS011;1679;50.392;8.008;2024-03-23T03:15:08;1.83;;;0.80;;
3333;SDS011;1679;50.392;8.008;2024-03-23T03:17:34;6.83;;;0.60;;
3333;SDS011;1679;50.392;8.008;2024-03-23T03:20:00;1.07;;;0.90;;
3333;SDS011;1679;50.392;8.008;2024-03-23T03:22:25;0.90;;;0.60;;
3333;SDS011;1679;50.392;8.008;2024-03-23T03:24:51;2.50;;;1.03;;
3333;SDS011;1679;50.392;8.008;2024-03-23T03:27:16;1.50;;;0.90;;
3333;SDS011;1679;50.392;8.008;2024-03-23T03:29:44;2.17;;;1.10;;
3333;SDS011;1679;50.392;8.008;2024-03-23T03:32:09;4.17;;;1.20;;
3333;SDS011;1679;50.392;8.008;2024-03-23T03:34:35;1.50;;;1.30;;
3333;SDS011;1679;50.392;8.008;2024-03-23T03:37:00;1.40;;;1.23;;
3333;SDS011;1679;50.392;8.008;2024-03-23T03:39:26;1.83;;;1.30;;
3333;SDS011;1679;50.392;8.008;2024-03-23T03:41:52;2.27;;;1.13;;
3333;SDS011;1679;50.392;8.008;2024-03-23T03:44:18;3.00;;;1.30;;
3333;SDS011;1679;50.392;8.008;2024-03-23T03:46:43;1.13;;;0.87;;
3333;SDS011;1679;50.392;8.008;2024-03-23T03:49:09;2.60;;;1.10;;
3333;SDS011;1679;50.392;8.008;2024-03-23T03:51:35;1.40;;;1.20;;
3333;SDS011;1679;50.392;8.008;2024-03-23T03:54:01;1.40;;;1.10;;
3333;SDS011;1679;50.392;8.008;2024-03-23T03:56:27;2.03;;;1.83;;
3333;SDS011;1679;50.392;8.008;2024-03-23T03:58:52;2.70;;;1.77;;
3333;SDS011;1679;50.392;8.008;2024-03-23T04:01:19;2.40;;;2.20;;
3333;SDS011;1679;50.392;8.008;2024-03-23T04:03:46;6.87;;;4.70;;
3333;SDS011;1679;50.392;8.008;2024-03-23T04:06:12;5.23;;;3.90;;
3333;SDS011;1679;50.392;8.008;2024-03-23T04:08:43;3.40;;;2.20;;
3333;SDS011;1679;50.392;8.008;2024-03-23T04:11:08;2.70;;;2.33;;
3333;SDS011;1679;50.392;8.008;2024-03-23T04:13:34;3.77;;;3.43;;
3333;SDS011;1679;50.392;8.008;2024-03-23T04:15:59;2.33;;;2.13;;
3333;SDS011;1679;50.392;8.008;2024-03-23T04:18:25;2.90;;;2.60;;
3333;SDS011;1679;50.392;8.008;2024-03-23T04:20:52;2.80;;;2.30;;
3333;SDS011;1679;50.392;8.008;2024-03-23T04:23:17;5.87;;;5.40;;
3333;SDS011;1679;50.392;8.008;2024-03-23T04:25:43;2.90;;;2.70;;
3333;SDS011;1679;50.392;8.008;2024-03-23T04:28:09;6.40;;;4.20;;
3333;SDS011;1679;50.392;8.008;2024-03-23T04:30:35;4.70;;;3.60;;
3333;SDS011;1679;50.392;8.008;2024-03-23T04:33:01;3.63;;;3.30;;
3333;SDS011;1679;50.392;8.008;2024-03-23T04:35:27;3.20;;;2.90;;
3333;SDS011;1679;50.392;8.008;2024-03-23T04:37:54;4.83;;;4.33;;
3333;SDS011;1679;50.392;8.008;2024-03-23T04:40:23;4.93;;;3.30;;
3333;SDS011;1679;50.392;8.008;2024-03-23T04:42:49;4.23;;;3.83;;
3333;SDS011;1679;50.392;8.008;2024-03-23T04:45:15;4.30;;;3.40;;
3333;SDS011;1679;50.392;8.008;2024-03-23T04:47:40;3.90;;;3.50;;
3333;SDS011;1679;50.392;8.008;2024-03-23T04:50:06;3.37;;;3.00;;
3333;SDS011;1679;50.392;8.008;2024-03-23T04:52:32;3.30;;;2.63;;
3333;SDS011;1679;50.392;8.008;2024-03-23T04:54:59;3.13;;;2.30;;
3333;SDS011;1679;50.392;8.008;2024-03-23T04:57:24;2.33;;;2.13;;
3333;SDS011;1679;50.392;8.008;2024-03-23T04:59:50;2.40;;;2.20;;
3333;SDS011;1679;50.392;8.008;2024-03-23T05:02:15;2.47;;;2.27;;
3333;SDS011;1679;50.392;8.008;2024-03-23T05:04:42;2.40;;;2.23;;
3333;SDS011;1679;50.392;8.008;2024-03-23T05:07:09;7.70;;;2.13;;
3333;SDS011;1679;50.392;8.008;2024-03-23T05:09:35;2.27;;;1.70;;
3333;SDS011;1679;50.392;8.008;2024-03-23T05:12:00;1.80;;;1.70;;
3333;SDS011;1679;50.392;8.008;2024-03-23T05:14:26;1.70;;;1.57;;
3333;SDS011;1679;50.392;8.008;2024-03-23T05:16:54;2.20;;;1.33;;
3333;SDS011;1679;50.392;8.008;2024-03-23T05:19:21;4.07;;;1.10;;
3333;SDS011;1679;50.392;8.008;2024-03-23T05:21:48;1.97;;;1.60;;
3333;SDS011;1679;50.392;8.008;2024-03-23T05:24:14;1.23;;;1.00;;
3333;SDS011;1679;50.392;8.008;2024-03-23T05:26:39;1.33;;;1.23;;
3333;SDS011;1679;50.392;8.008;2024-03-23T05:29:05;0.97;;;0.73;;
3333;SDS011;1679;50.392;8.008;2024-03-23T05:31:35;1.50;;;1.30;;
3333;SDS011;1679;50.392;8.008;2024-03-23T05:34:02;2.83;;;1.27;;
3333;SDS011;1679;50.392;8.008;2024-03-23T05:36:28;1.57;;;1.40;;
3333;SDS011;1679;50.392;8.008;2024-03-23T05:38:54;3.23;;;1.60;;
3333;SDS011;1679;50.392;8.008;2024-03-23T05:41:19;1.73;;;1.63;;
3333;SDS011;1679;50.392;8.008;2024-03-23T05:43:45;1.20;;;1.10;;
3333;SDS011;1679;50.392;8.008;2024-03-23T05:46:11;1.60;;;1.50;;
3333;SDS011;1679;50.392;8.008;2024-03-23T05:48:36;1.20;;;0.93;;
3333;SDS011;1679;50.392;8.008;2024-03-23T05:51:02;6.80;;;1.80;;
3333;SDS011;1679;50.392;8.008;2024-03-23T05:53:27;1.30;;;1.10;;
3333;SDS011;1679;50.392;8.008;2024-03-23T05:56:01;2.10;;;2.00;;
3333;SDS011;1679;50.392;8.008;2024-03-23T05:58:34;5.90;;;2.30;;
3333;SDS011;1679;50.392;8.008;2024-03-23T06:01:00;4.80;;;1.90;;
3333;SDS011;1679;50.392;8.008;2024-03-23T06:03:28;3.40;;;1.80;;
3333;SDS011;1679;50.392;8.008;2024-03-23T06:05:54;3.37;;;2.20;;
3333;SDS011;1679;50.392;8.008;2024-03-23T06:08:20;1.80;;;1.70;;
3333;SDS011;1679;50.392;8.008;2024-03-23T06:10:46;5.03;;;1.90;;
3333;SDS011;1679;50.392;8.008;2024-03-23T06:13:12;8.70;;;2.27;;
3333;SDS011;1679;50.392;8.008;2024-03-23T06:15:38;2.63;;;2.03;;
3333;SDS011;1679;50.392;8.008;2024-03-23T06:18:04;4.43;;;2.27;;
3333;SDS011;1679;50.392;8.008;2024-03-23T06:20:30;2.13;;;1.93;;
3333;SDS011;1679;50.392;8.008;2024-03-23T06:22:56;8.70;;;2.40;;
3333;SDS011;1679;50.392;8.008;2024-03-23T06:25:22;4.17;;;2.43;;
3333;SDS011;1679;50.392;8.008;2024-03-23T06:27:48;4.40;;;2.37;;
3333;SDS011;1679;50.392;8.008;2024-03-23T06:30:13;3.00;;;2.47;;
3333;SDS011;1679;50.392;8.008;2024-03-23T06:32:40;7.43;;;3.30;;
3333;SDS011;1679;50.392;8.008;2024-03-23T06:35:06;4.27;;;3.57;;
3333;SDS011;1679;50.392;8.008;2024-03-23T06:37:35;5.73;;;3.50;;
3333;SDS011;1679;50.392;8.008;2024-03-23T06:40:00;6.47;;;4.30;;
3333;SDS011;1679;50.392;8.008;2024-03-23T06:42:26;6.77;;;4.10;;
3333;SDS011;1679;50.392;8.008;2024-03-23T06:44:53;5.80;;;4.80;;
3333;SDS011;1679;50.392;8.008;2024-03-23T06:47:19;9.43;;;5.53;;
3333;SDS011;1679;50.392;8.008;2024-03-23T06:49:44;8.23;;;5.30;;
3333;SDS011;1679;50.392;8.008;2024-03-23T06:52:10;7.13;;;5.03;;
3333;SDS011;1679;50.392;8.008;2024-03-23T06:54:38;10.23;;;6.07;;
3333;SDS011;1679;50.392;8.008;2024-03-23T06:57:03;11.87;;;6.40;;
3333;SDS011;1679;50.392;8.008;2024-03-23T06:59:29;9.00;;;5.87;;
3333;SDS011;1679;50.392;8.008;2024-03-23T07:01:55;7.43;;;5.97;;
3333;SDS011;1679;50.392;8.008;2024-03-23T07:04:20;12.90;;;6.30;;
3333;SDS011;1679;50.392;8.008;2024-03-23T07:06:46;12.00;;;6.77;;
3333;SDS011;1679;50.392;8.008;2024-03-23T07:09:11;9.27;;;7.20;;
3333;SDS011;1679;50.392;8.008;2024-03-23T07:11:37;10.97;;;7.10;;
3333;SDS011;1679;50.392;8.008;2024-03-23T07:14:03;12.43;;;8.17;;
3333;SDS011;1679;50.392;8.008;2024-03-23T07:16:29;14.30;;;7.40;;
3333;SDS011;1679;50.392;8.008;2024-03-23T07:18:55;14.13;;;8.20;;
3333;SDS011;1679;50.392;8.008;2024-03-23T07:21:22;11.63;;;7.17;;
3333;SDS011;1679;50.392;8.008;2024-03-23T07:23:47;22.60;;;12.20;;
3333;SDS011;1679;50.392;8.008;2024-03-23T07:26:13;13.53;;;7.60;;
3333;SDS011;1679;50.392;8.008;2024-03-23T07:28:39;14.97;;;8.43;;
3333;SDS011;1679;50.392;8.008;2024-03-23T07:31:09;16.43;;;8.50;;
3333;SDS011;1679;50.392;8.008;2024-03-23T07:33:36;32.43;;;18.27;;
3333;SDS011;1679;50.392;8.008;2024-03-23T07:36:06;36.73;;;21.70;;
3333;SDS011;1679;50.392;8.008;2024-03-23T07:38:32;21.50;;;11.37;;
3333;SDS011;1679;50.392;8.008;2024-03-23T07:41:07;31.00;;;13.03;;
3333;SDS011;1679;50.392;8.008;2024-03-23T07:43:33;13.87;;;8.50;;
3333;SDS011;1679;50.392;8.008;2024-03-23T07:45:59;20.97;;;15.80;;
3333;SDS011;1679;50.392;8.008;2024-03-23T07:48:26;21.70;;;11.03;;
3333;SDS011;1679;50.392;8.008;2024-03-23T07:51:13;23.37;;;16.80;;
3333;SDS011;1679;50.392;8.008;2024-03-23T07:53:46;24.73;;;15.10;;
3333;SDS011;1679;50.392;8.008;2024-03-23T07:56:13;10.57;;;4.97;;
3333;SDS011;1679;50.392;8.008;2024-03-23T07:58:40;14.03;;;11.60;;
3333;SDS011;1679;50.392;8.008;2024-03-23T08:01:07;15.17;;;6.70;;
3333;SDS011;1679;50.392;8.008;2024-03-23T08:03:37;10.50;;;5.53;;
3333;SDS011;1679;50.392;8.008;2024-03-23T08:06:07;9.17;;;4.53;;
3333;SDS011;1679;50.392;8.008;2024-03-23T08:08:33;11.97;;;5.37;;
3333;SDS011;1679;50.392;8.008;2024-03-23T08:10:59;8.27;;;4.47;;
3333;SDS011;1679;50.392;8.008;2024-03-23T08:13:26;7.20;;;5.17;;
3333;SDS011;1679;50.392;8.008;2024-03-23T08:15:52;9.30;;;4.53;;
3333;SDS011;1679;50.392;8.008;2024-03-23T08:18:21;9.07;;;4.37;;
3333;SDS011;1679;50.392;8.008;2024-03-23T08:20:47;11.93;;;4.73;;
3333;SDS011;1679;50.392;8.008;2024-03-23T08:23:30;9.33;;;4.10;;
3333;SDS011;1679;50.392;8.008;2024-03-23T08:25:59;13.83;;;4.77;;
3333;SDS011;1679;50.392;8.008;2024-03-23T08:28:26;14.93;;;7.80;;
3333;SDS011;1679;50.392;8.008;2024-03-23T08:30:52;9.20;;;4.40;;
3333;SDS011;1679;50.392;8.008;2024-03-23T08:33:19;8.03;;;5.93;;
3333;SDS011;1679;50.392;8.008;2024-03-23T08:35:58;9.77;;;5.60;;
3333;SDS011;1679;50.392;8.008;2024-03-23T08:38:25;18.27;;;8.50;;
3333;SDS011;1679;50.392;8.008;2024-03-23T08:40:58;12.47;;;5.20;;
3333;SDS011;1679;50.392;8.008;2024-03-23T08:43:37;8.23;;;5.00;;
3333;SDS011;1679;50.392;8.008;2024-03-23T08:46:08;10.67;;;4.70;;
3333;SDS011;1679;50.392;8.008;2024-03-23T08:48:39;9.57;;;4.80;;
3333;SDS011;1679;50.392;8.008;2024-03-23T08:51:09;11.10;;;6.00;;
3333;SDS011;1679;50.392;8.008;2024-03-23T08:53:35;5.30;;;4.47;;
3333;SDS011;1679;50.392;8.008;2024-03-23T08:56:01;7.90;;;4.90;;
3333;SDS011;1679;50.392;8.008;2024-03-23T08:58:31;17.33;;;7.40;;
3333;SDS011;1679;50.392;8.008;2024-03-23T09:01:07;8.13;;;4.40;;
3333;SDS011;1679;50.392;8.008;2024-03-23T09:03:41;14.27;;;4.30;;
3333;SDS011;1679;50.392;8.008;2024-03-23T09:06:08;8.17;;;3.93;;
3333;SDS011;1679;50.392;8.008;2024-03-23T09:08:35;11.80;;;6.50;;
3333;SDS011;1679;50.392;8.008;2024-03-23T09:11:05;8.10;;;3.80;;
3333;SDS011;1679;50.392;8.008;2024-03-23T09:13:34;12.37;;;3.90;;
3333;SDS011;1679;50.392;8.008;2024-03-23T09:16:00;9.27;;;6.60;;
3333;SDS011;1679;50.392;8.008;2024-03-23T09:18:26;8.20;;;3.50;;
3333;SDS011;1679;50.392;8.008;2024-03-23T09:20:52;4.37;;;3.27;;
3333;SDS011;1679;50.392;8.008;2024-03-23T09:23:19;5.60;;;2.70;;
3333;SDS011;1679;50.392;8.008;2024-03-23T09:25:46;9.33;;;3.23;;
3333;SDS011;1679;50.392;8.008;2024-03-23T09:28:11;6.33;;;2.40;;
3333;SDS011;1679;50.392;8.008;2024-03-23T09:30:37;7.83;;;2.03;;
3333;SDS011;1679;50.392;8.008;2024-03-23T09:33:09;4.50;;;2.87;;
3333;SDS011;1679;50.392;8.008;2024-03-23T09:35:41;12.97;;;7.60;;
3333;SDS011;1679;50.392;8.008;2024-03-23T09:38:08;8.60;;;2.17;;
3333;SDS011;1679;50.392;8.008;2024-03-23T09:40:34;2.50;;;1.20;;
3333;SDS011;1679;50.392;8.008;2024-03-23T09:43:06;4.90;;;1.40;;
3333;SDS011;1679;50.392;8.008;2024-03-23T09:45:32;4.20;;;1.73;;
3333;SDS011;1679;50.392;8.008;2024-03-23T09:48:01;8.70;;;1.90;;
3333;SDS011;1679;50.392;8.008;2024-03-23T09:50:28;2.90;;;1.20;;
3333;SDS011;1679;50.392;8.008;2024-03-23T09:52:54;3.00;;;1.70;;
3333;SDS011;1679;50.392;8.008;2024-03-23T09:55:19;4.23;;;1.77;;
3333;SDS011;1679;50.392;8.008;2024-03-23T09:57:45;5.03;;;2.00;;
3333;SDS011;1679;50.392;8.008;2024-03-23T10:00:10;3.10;;;1.67;;
3333;SDS011;1679;50.392;8.008;2024-03-23T10:02:37;4.83;;;2.53;;
3333;SDS011;1679;50.392;8.008;2024-03-23T10:05:03;5.53;;;2.40;;
3333;SDS011;1679;50.392;8.008;2024-03-23T10:07:29;4.50;;;2.20;;
3333;SDS011;1679;50.392;8.008;2024-03-23T10:09:55;7.70;;;2.20;;
3333;SDS011;1679;50.392;8.008;2024-03-23T10:12:22;3.87;;;1.97;;
3333;SDS011;1679;50.392;8.008;2024-03-23T10:14:49;7.07;;;2.80;;
3333;SDS011;1679;50.392;8.008;2024-03-23T10:17:16;6.37;;;1.80;;
3333;SDS011;1679;50.392;8.008;2024-03-23T10:19:49;4.03;;;1.73;;
3333;SDS011;1679;50.392;8.008;2024-03-23T10:22:20;3.90;;;1.57;;
3333;SDS011;1679;50.392;8.008;2024-03-23T10:24:47;3.47;;;2.03;;
3333;SDS011;1679;50.392;8.008;2024-03-23T10:27:15;7.53;;;2.57;;
3333;SDS011;1679;50.392;8.008;2024-03-23T10:29:45;4.20;;;2.27;;
3333;SDS011;1679;50.392;8.008;2024-03-23T10:32:11;7.13;;;2.60;;
3333;SDS011;1679;50.392;8.008;2024-03-23T10:34:39;5.37;;;2.13;;
3333;SDS011;1679;50.392;8.008;2024-03-23T10:37:06;2.93;;;2.20;;
3333;SDS011;1679;50.392;8.008;2024-03-23T10:39:39;6.80;;;1.97;;
3333;SDS011;1679;50.392;8.008;2024-03-23T10:42:06;3.50;;;2.00;;
3333;SDS011;1679;50.392;8.008;2024-03-23T10:44:33;3.23;;;1.97;;
3333;SDS011;1679;50.392;8.008;2024-03-23T10:47:03;4.80;;;2.60;;
3333;SDS011;1679;50.392;8.008;2024-03-23T10:49:30;4.50;;;1.97;;
3333;SDS011;1679;50.392;8.008;2024-03-23T10:52:01;4.67;;;2.43;;
3333;SDS011;1679;50.392;8.008;2024-03-23T10:54:29;5.73;;;2.13;;
3333;SDS011;1679;50.392;8.008;2024-03-23T10:57:03;5.17;;;2.10;;
3333;SDS011;1679;50.392;8.008;2024-03-23T10:59:36;6.40;;;2.20;;
3333;SDS011;1679;50.392;8.008;2024-03-23T11:02:03;5.20;;;2.43;;
3333;SDS011;1679;50.392;8.008;2024-03-23T11:04:29;3.70;;;2.30;;
3333;SDS011;1679;50.392;8.008;2024-03-23T11:06:56;2.83;;;1.67;;
3333;SDS011;1679;50.392;8.008;2024-03-23T11:15:00;4.37;;;2.00;;
3333;SDS011;1679;50.392;8.008;2024-03-23T11:17:30;2.73;;;1.97;;
3333;SDS011;1679;50.392;8.008;2024-03-23T11:25:03;4.63;;;2.40;;
3333;SDS011;1679;50.392;8.008;2024-03-23T11:27:37;5.77;;;2.07;;
3333;SDS011;1679;50.392;8.008;2024-03-23T11:32:44;5.67;;;2.47;;
3333;SDS011;1679;50.392;8.008;2024-03-23T11:35:24;5.23;;;2.73;;
3333;SDS011;1679;50.392;8.008;2024-03-23T11:38:18;3.37;;;2.23;;
3333;SDS011;1679;50.392;8.008;2024-03-23T11:40:44;3.30;;;2.00;;
3333;SDS011;1679;50.392;8.008;2024-03-23T11:45:39;6.67;;;3.00;;
3333;SDS011;1679;50.392;8.008;2024-03-23T11:48:10;8.20;;;2.80;;
3333;SDS011;1679;50.392;8.008;2024-03-23T11:50:40;5.50;;;2.60;;
3333;SDS011;1679;50.392;8.008;2024-03-23T11:53:17;3.23;;;2.93;;
3333;SDS011;1679;50.392;8.008;2024-03-23T11:58:17;0.80;;;0.40;;
3333;SDS011;1679;50.392;8.008;2024-03-23T12:00:50;1.37;;;1.27;;
3333;SDS011;1679;50.392;8.008;2024-03-23T12:03:23;3.73;;;0.77;;
3333;SDS011;1679;50.392;8.008;2024-03-23T12:05:53;2.00;;;0.47;;
3333;SDS011;1679;50.392;8.008;2024-03-23T12:10:54;1.40;;;0.60;;
3333;SDS011;1679;50.392;8.008;2024-03-23T12:13:31;0.80;;;0.40;;
3333;SDS011;1679;50.392;8.008;2024-03-23T12:16:08;0.80;;;0.43;;
3333;SDS011;1679;50.392;8.008;2024-03-23T12:18:38;0.83;;;0.50;;
3333;SDS011;1679;50.392;8.008;2024-03-23T12:21:05;1.30;;;0.67;;
3333;SDS011;1679;50.392;8.008;2024-03-23T12:23:31;0.80;;;0.50;;
3333;SDS011;1679;50.392;8.008;2024-03-23T12:25:57;1.90;;;0.50;;
3333;SDS011;1679;50.392;8.008;2024-03-23T12:28:23;1.20;;;0.57;;
3333;SDS011;1679;50.392;8.008;2024-03-23T12:30:50;2.17;;;0.90;;
3333;SDS011;1679;50.392;8.008;2024-03-23T12:33:18;0.90;;;0.60;;
3333;SDS011;1679;50.392;8.008;2024-03-23T12:35:48;0.93;;;0.70;;
3333;SDS011;1679;50.392;8.008;2024-03-23T12:38:16;1.90;;;0.70;;
3333;SDS011;1679;50.392;8.008;2024-03-23T12:40:46;2.30;;;1.13;;
3333;SDS011;1679;50.392;8.008;2024-03-23T12:43:15;3.90;;;1.17;;
3333;SDS011;1679;50.392;8.008;2024-03-23T12:45:41;1.40;;;0.70;;
3333;SDS011;1679;50.392;8.008;2024-03-23T12:48:11;2.07;;;1.30;;
3333;SDS011;1679;50.392;8.008;2024-03-23T12:50:38;12.90;;;4.20;;
3333;SDS011;1679;50.392;8.008;2024-03-23T12:53:03;22.17;;;9.60;;
3333;SDS011;1679;50.392;8.008;2024-03-23T12:55:29;124.07;;;45.03;;
3333;SDS011;1679;50.392;8.008;2024-03-23T12:57:55;139.33;;;59.03;;
3333;SDS011;1679;50.392;8.008;2024-03-23T13:00:21;3.00;;;2.70;;
3333;SDS011;1679;50.392;8.008;2024-03-23T13:02:47;32.30;;;20.97;;
3333;SDS011;1679;50.392;8.008;2024-03-23T13:05:13;8.90;;;6.27;;
3333;SDS011;1679;50.392;8.008;2024-03-23T13:07:38;2.43;;;1.70;;
3333;SDS011;1679;50.392;8.008;2024-03-23T13:10:05;5.10;;;3.03;;
3333;SDS011;1679;50.392;8.008;2024-03-23T13:12:32;4.03;;;3.67;;
3333;SDS011;1679;50.392;8.008;2024-03-23T13:14:58;4.70;;;2.87;;
3333;SDS011;1679;50.392;8.008;2024-03-23T13:17:24;1.37;;;1.27;;
3333;SDS011;1679;50.392;8.008;2024-03-23T13:19:51;1.50;;;1.13;;
3333;SDS011;1679;50.392;8.008;2024-03-23T13:22:17;5.00;;;3.00;;
3333;SDS011;1679;50.392;8.008;2024-03-23T13:24:43;1.50;;;1.40;;
3333;SDS011;1679;50.392;8.008;2024-03-23T13:27:11;1.30;;;1.07;;
3333;SDS011;1679;50.392;8.008;2024-03-23T13:29:37;3.80;;;3.50;;
3333;SDS011;1679;50.392;8.008;2024-03-23T13:32:03;2.13;;;1.80;;
3333;SDS011;1679;50.392;8.008;2024-03-23T13:34:29;2.10;;;1.90;;
3333;SDS011;1679;50.392;8.008;2024-03-23T13:36:55;2.67;;;2.47;;
3333;SDS011;1679;50.392;8.008;2024-03-23T13:39:23;7.60;;;6.83;;
3333;SDS011;1679;50.392;8.008;2024-03-23T13:41:50;5.33;;;4.70;;
3333;SDS011;1679;50.392;8.008;2024-03-23T13:44:15;3.00;;;1.27;;
3333;SDS011;1679;50.392;8.008;2024-03-23T13:46:41;7.07;;;6.10;;
3333;SDS011;1679;50.392;8.008;2024-03-23T13:49:09;3.80;;;1.53;;
3333;SDS011;1679;50.392;8.008;2024-03-23T13:51:52;2.50;;;1.90;;
3333;SDS011;1679;50.392;8.008;2024-03-23T13:54:19;3.10;;;2.90;;
3333;SDS011;1679;50.392;8.008;2024-03-23T13:56:45;1.60;;;1.03;;
3333;SDS011;1679;50.392;8.008;2024-03-23T13:59:11;2.97;;;2.77;;
3333;SDS011;1679;50.392;8.008;2024-03-23T14:01:36;1.20;;;1.10;;
3333;SDS011;1679;50.392;8.008;2024-03-23T14:04:03;5.03;;;2.03;;
3333;SDS011;1679;50.392;8.008;2024-03-23T14:06:29;1.97;;;1.77;;
3333;SDS011;1679;50.392;8.008;2024-03-23T14:08:54;6.67;;;1.70;;
3333;SDS011;1679;50.392;8.008;2024-03-23T14:11:20;3.20;;;2.30;;
3333;SDS011;1679;50.392;8.008;2024-03-23T14:13:46;2.07;;;1.87;;
3333;SDS011;1679;50.392;8.008;2024-03-23T14:16:11;1.63;;;1.53;;
3333;SDS011;1679;50.392;8.008;2024-03-23T14:18:38;1.10;;;1.00;;
3333;SDS011;1679;50.392;8.008;2024-03-23T14:21:05;1.10;;;1.00;;
3333;SDS011;1679;50.392;8.008;2024-03-23T14:23:32;3.27;;;1.87;;
3333;SDS011;1679;50.392;8.008;2024-03-23T14:26:02;2.30;;;2.20;;
3333;SDS011;1679;50.392;8.008;2024-03-23T14:28:28;1.20;;;1.10;;
3333;SDS011;1679;50.392;8.008;2024-03-23T14:30:55;1.67;;;0.90;;
3333;SDS011;1679;50.392;8.008;2024-03-23T14:33:21;3.97;;;2.90;;
3333;SDS011;1679;50.392;8.008;2024-03-23T14:35:54;2.50;;;1.57;;
3333;SDS011;1679;50.392;8.008;2024-03-23T14:38:23;1.13;;;0.90;;
3333;SDS011;1679;50.392;8.008;2024-03-23T14:40:49;4.83;;;1.13;;
3333;SDS011;1679;50.392;8.008;2024-03-23T14:43:15;1.10;;;0.80;;
3333;SDS011;1679;50.392;8.008;2024-03-23T14:48:53;2.00;;;0.93;;
3333;SDS011;1679;50.392;8.008;2024-03-23T14:51:19;1.43;;;1.20;;
3333;SDS011;1679;50.392;8.008;2024-03-23T14:53:46;1.20;;;1.00;;
3333;SDS011;1679;50.392;8.008;2024-03-23T14:56:13;3.43;;;1.00;;
3333;SDS011;1679;50.392;8.008;2024-03-23T14:58:40;3.20;;;1.20;;
3333;SDS011;1679;50.392;8.008;2024-03-23T15:01:07;1.53;;;0.80;;
3333;SDS011;1679;50.392;8.008;2024-03-23T15:03:34;1.33;;;1.10;;
3333;SDS011;1679;50.392;8.008;2024-03-23T15:06:00;1.20;;;1.10;;
3333;SDS011;1679;50.392;8.008;2024-03-23T15:08:27;1.27;;;1.17;;
3333;SDS011;1679;50.392;8.008;2024-03-23T15:10:54;3.20;;;2.37;;
3333;SDS011;1679;50.392;8.008;2024-03-23T15:13:20;3.13;;;1.27;;
3333;SDS011;1679;50.392;8.008;2024-03-23T15:15:47;2.57;;;2.33;;
3333;SDS011;1679;50.392;8.008;2024-03-23T15:18:14;2.80;;;2.40;;
3333;SDS011;1679;50.392;8.008;2024-03-23T15:20:41;1.17;;;1.03;;
3333;SDS011;1679;50.392;8.008;2024-03-23T15:23:16;2.90;;;1.70;;
3333;SDS011;1679;50.392;8.008;2024-03-23T15:25:41;2.93;;;1.67;;
3333;SDS011;1679;50.392;8.008;2024-03-23T15:28:07;2.77;;;1.20;;
3333;SDS011;1679;50.392;8.008;2024-03-23T15:30:32;4.70;;;3.70;;
3333;SDS011;1679;50.392;8.008;2024-03-23T15:32:59;3.27;;;2.33;;
3333;SDS011;1679;50.392;8.008;2024-03-23T15:35:24;2.80;;;2.43;;
3333;SDS011;1679;50.392;8.008;2024-03-23T15:37:50;3.60;;;1.43;;
3333;SDS011;1679;50.392;8.008;2024-03-23T15:40:16;1.00;;;0.83;;
3333;SDS011;1679;50.392;8.008;2024-03-23T15:42:42;2.87;;;0.60;;
3333;SDS011;1679;50.392;8.008;2024-03-23T15:45:07;1.67;;;1.43;;
3333;SDS011;1679;50.392;8.008;2024-03-23T15:47:34;3.67;;;1.40;;
3333;SDS011;1679;50.392;8.008;2024-03-23T15:50:00;5.77;;;1.43;;
3333;SDS011;1679;50.392;8.008;2024-03-23T15:52:28;1.37;;;0.83;;
3333;SDS011;1679;50.392;8.008;2024-03-23T15:54:54;1.77;;;1.03;;
3333;SDS011;1679;50.392;8.008;2024-03-23T15:57:21;1.97;;;1.00;;
3333;SDS011;1679;50.392;8.008;2024-03-23T15:59:47;2.17;;;1.10;;
3333;SDS011;1679;50.392;8.008;2024-03-23T16:02:13;2.97;;;1.67;;
3333;SDS011;1679;50.392;8.008;2024-03-23T16:04:38;4.00;;;0.90;;
3333;SDS011;1679;50.392;8.008;2024-03-23T16:07:04;1.10;;;0.70;;
3333;SDS011;1679;50.392;8.008;2024-03-23T16:09:30;3.60;;;1.03;;
3333;SDS011;1679;50.392;8.008;2024-03-23T16:11:56;1.30;;;1.17;;
3333;SDS011;1679;50.392;8.008;2024-03-23T16:14:21;4.70;;;1.93;;
3333;SDS011;1679;50.392;8.008;2024-03-23T16:16:47;4.90;;;1.63;;
3333;SDS011;1679;50.392;8.008;2024-03-23T16:19:14;3.87;;;1.67;;
3333;SDS011;1679;50.392;8.008;2024-03-23T16:21:41;2.70;;;1.17;;
3333;SDS011;1679;50.392;8.008;2024-03-23T16:24:07;2.60;;;0.90;;
3333;SDS011;1679;50.392;8.008;2024-03-23T16:26:33;5.27;;;1.20;;